Setif


Bulletin



L'aéroport de Setif (Algeria) a édité ce bulletin météorologique il y a 652 minutes, à 12:00 Africa/Algiers (11H00 UTC)
La température est de 21 °C, avec un point de rosée à 3 °C.
L'humidite relative est de 30.52 %.
La pression au niveau de la mer est de 1022 hPa.
Le vent souffle à une vitesse de 19 km/h du SO (240°).


Message METAR

DAAS 241100Z 24010KT CAVOK 21/03 Q1022
Récupérer le message au format XML
Récupérer le message au format JSON


Observations sur 24h




Date (Locale) Temp. (°C) Point rosée (°C) Pression (hPa) Direction vent Vitesse (km/h)
12:00 24/04/2014 21 3 1022 SO 19
10:00 24/04/2014 18 4 1023 OSO 11
09:00 24/04/2014 15 4 1023 OSO 9
08:00 24/04/2014 13 4 1023 SSO 4
07:00 24/04/2014 8 3 1023 NNO 7
06:00 24/04/2014 4 2 1023 NNO 11
04:00 24/04/2014 5 1 1023 NNO 7
03:00 24/04/2014 5 2 1023 NNO 7
02:00 24/04/2014 6 3 1023 NE 4
01:00 24/04/2014 6 3 1024 N 4
00:00 24/04/2014 7 2 1024 N 9
23:00 23/04/2014 9 3 1024 OSO 7
Les données de cette page proviennent des messages METAR de la NOAA